KVJI/VJI METAR and TAF weather

Enter ICAO airport designator
Station Type Date Time Source
KVJI METAR 2020/08/15 09:35 UTC NOAA

KVJI 150935Z AUTO 07003KT 10SM SCT043 BKN060 OVC080 21/19 A2996 RMK AO2 P0001 T02050188


Station Type Date Time Source
KVJI Decoded METAR 2020/08/15 09:35 UTC NOAA

Abingdon, VA, United States (KVJI) 36-41N 082-02W
Aug 15, 2020 - 05:35 AM EDT / 2020.08.15 0935 UTC
Wind: from the ENE (070 degrees) at 3 MPH (3 KT):0
Visibility: 10 mile(s):0
Sky conditions: overcast
Precipitation last hour: 0.01 inches
Temperature: 68.9 F (20.5 C)
Dew Point: 65.8 F (18.8 C)
Relative Humidity: 89%
Pressure (altimeter): 29.96 in. Hg (1014 hPa)
ob: KVJI 150935Z AUTO 07003KT 10SM SCT043 BKN060 OVC080 21/19 A2996 RMK AO2 P0001 T02050188
cycle: 9

Station Type Date Time Source
KVJI TAF UTC NOAA

Error!

Example: see airport list